createdAt,value
2019-02-03T00:00:14.836Z,81.90
2019-02-03T00:01:14.722Z,81.60
2019-02-03T00:02:14.700Z,79.50
2019-02-03T00:03:14.653Z,82.70
2019-02-03T00:04:14.650Z,83.10
2019-02-03T00:05:14.592Z,80.40
2019-02-03T00:06:14.663Z,84.80
2019-02-03T00:07:14.534Z,83.50
2019-02-03T00:08:14.505Z,80.00
2019-02-03T00:09:14.482Z,85.10
2019-02-03T00:10:14.433Z,86.00
2019-02-03T00:11:14.491Z,84.40
2019-02-03T00:12:14.374Z,85.60
2019-02-03T00:13:14.341Z,85.60
2019-02-03T00:14:14.305Z,84.00
2019-02-03T00:15:14.314Z,84.70
2019-02-03T00:16:14.245Z,87.70
2019-02-03T00:17:14.323Z,88.20
2019-02-03T00:18:14.192Z,88.50
2019-02-03T00:19:14.154Z,83.80
2019-02-03T00:20:14.117Z,85.60
2019-02-03T00:21:14.141Z,81.80
2019-02-03T00:22:14.065Z,82.40
2019-02-03T00:23:14.053Z,88.10
2019-02-03T00:24:13.983Z,82.60
2019-02-03T00:25:14.060Z,87.10
2019-02-03T00:26:13.921Z,85.20
2019-02-03T00:27:13.981Z,88.00
2019-02-03T00:28:13.865Z,92.50
2019-02-03T00:29:13.882Z,92.30
2019-02-03T00:30:13.791Z,90.60
2019-02-03T00:31:13.792Z,94.30
2019-02-03T00:32:13.732Z,93.70
2019-02-03T00:33:13.812Z,91.10
2019-02-03T00:34:13.681Z,94.10
2019-02-03T00:35:13.643Z,94.30
2019-02-03T00:36:13.603Z,97.10
2019-02-03T00:37:16.747Z,100.30
2019-02-03T00:38:22.938Z,96.10
2019-02-03T00:39:13.503Z,92.70
2019-02-03T00:40:13.544Z,96.50
2019-02-03T00:41:13.551Z,97.30
2019-02-03T00:42:13.411Z,93.30
2019-02-03T00:43:13.463Z,96.10
2019-02-03T00:44:13.344Z,100.80
2019-02-03T00:45:13.419Z,97.90
2019-02-03T00:46:13.281Z,101.70
2019-02-03T00:47:13.282Z,99.10
2019-02-03T00:48:13.222Z,93.50
2019-02-03T00:49:13.291Z,96.00
2019-02-03T00:50:13.150Z,98.20
2019-02-03T00:51:13.212Z,98.50
2019-02-03T00:52:13.113Z,98.10
2019-02-03T00:53:13.074Z,97.40
2019-02-03T00:54:13.134Z,98.60
2019-02-03T00:55:13.007Z,99.40
2019-02-03T00:56:13.032Z,97.80
2019-02-03T00:57:12.932Z,98.00
2019-02-03T00:58:12.904Z,98.70
2019-02-03T00:59:12.952Z,102.10
2019-02-03T01:00:12.833Z,97.10
2019-02-03T01:01:12.862Z,94.60
2019-02-03T01:02:12.769Z,97.40
2019-02-03T01:03:12.733Z,98.90
2019-02-03T01:04:12.703Z,95.00
2019-02-03T01:05:12.793Z,102.50
2019-02-03T01:06:12.656Z,94.50
2019-02-03T01:07:12.697Z,96.90
2019-02-03T01:08:12.597Z,99.50
2019-02-03T01:09:12.542Z,97.70
2019-02-03T01:10:12.610Z,97.00
2019-02-03T01:11:12.482Z,101.80
2019-02-03T01:12:12.514Z,98.10
2019-02-03T01:13:12.415Z,98.80
2019-02-03T01:14:12.395Z,97.10
2019-02-03T01:15:12.354Z,98.90
2019-02-03T01:16:12.448Z,97.00
2019-02-03T01:17:12.291Z,98.20
2019-02-03T01:18:12.357Z,99.10
2019-02-03T01:19:12.251Z,100.80
2019-02-03T01:20:12.194Z,99.00
2019-02-03T01:21:12.163Z,97.60
2019-02-03T01:22:12.177Z,99.60
2019-02-03T01:23:12.100Z,100.30
2019-02-03T01:24:12.085Z,100.00
2019-02-03T01:25:12.045Z,101.00
2019-02-03T01:26:12.018Z,100.90
2019-02-03T01:27:12.006Z,100.20
2019-02-03T01:28:11.931Z,105.70
2019-02-03T01:29:12.014Z,102.80
2019-02-03T01:30:11.872Z,103.70
2019-02-03T01:31:11.842Z,104.00
2019-02-03T01:32:11.822Z,98.50
2019-02-03T01:33:11.775Z,95.70
2019-02-03T01:34:11.835Z,100.70
2019-02-03T01:35:11.712Z,100.60
2019-02-03T01:36:11.761Z,95.40
2019-02-03T01:37:11.677Z,101.00
2019-02-03T01:38:11.656Z,105.10
2019-02-03T01:39:11.594Z,99.30
2019-02-03T01:40:11.564Z,98.60
2019-02-03T01:41:11.521Z,101.10
2019-02-03T01:42:11.482Z,102.30
2019-02-03T01:43:11.463Z,96.80
2019-02-03T01:44:11.493Z,94.80
2019-02-03T01:45:11.382Z,103.20
2019-02-03T01:46:11.403Z,94.70
2019-02-03T01:47:11.323Z,100.80
2019-02-03T01:48:11.294Z,95.10
2019-02-03T01:49:11.311Z,97.70
2019-02-03T01:50:11.233Z,98.50
2019-02-03T01:51:11.233Z,101.40
2019-02-03T01:52:11.163Z,97.00
2019-02-03T01:53:11.133Z,94.70
2019-02-03T01:54:11.102Z,100.50
2019-02-03T01:55:11.153Z,101.70
2019-02-03T01:56:11.043Z,95.80
2019-02-03T01:57:11.077Z,99.10
2019-02-03T01:58:10.972Z,98.30
2019-02-03T01:59:10.953Z,102.10
2019-02-03T02:00:10.981Z,100.60
2019-02-03T02:01:10.871Z,106.30
2019-02-03T02:02:10.892Z,107.00
2019-02-03T02:03:10.811Z,105.40
2019-02-03T02:04:10.803Z,105.30
2019-02-03T02:05:10.889Z,105.40
2019-02-03T02:06:10.822Z,104.40
2019-02-03T02:07:10.684Z,107.40
2019-02-03T02:08:10.746Z,105.70
2019-02-03T02:09:10.623Z,108.10
2019-02-03T02:10:10.594Z,111.20
2019-02-03T02:11:10.553Z,108.50
2019-02-03T02:12:10.541Z,110.70
2019-02-03T02:13:10.493Z,110.40
2019-02-03T02:14:10.553Z,103.70
2019-02-03T02:15:10.430Z,110.90
2019-02-03T02:16:10.472Z,103.50
2019-02-03T02:17:10.374Z,104.40
2019-02-03T02:18:10.373Z,104.60
2019-02-03T02:19:10.301Z,104.10
2019-02-03T02:20:10.283Z,103.10
2019-02-03T02:21:10.291Z,104.40
2019-02-03T02:22:10.203Z,104.10
2019-02-03T02:23:10.215Z,105.90
2019-02-03T02:24:10.141Z,103.70
2019-02-03T02:25:11.138Z,106.60
2019-02-03T02:26:10.069Z,102.80
2019-02-03T02:27:10.043Z,107.40
2019-02-03T02:28:10.025Z,103.00
2019-02-03T02:29:09.996Z,106.70
2019-02-03T02:30:10.042Z,103.80
2019-02-03T02:31:09.914Z,106.50
2019-02-03T02:32:09.894Z,103.70
2019-02-03T02:33:09.870Z,103.90
2019-02-03T02:34:09.862Z,105.50
2019-02-03T02:35:09.798Z,101.40
2019-02-03T02:36:09.782Z,107.20
2019-02-03T02:37:09.729Z,104.00
2019-02-03T02:38:09.693Z,101.60
2019-02-03T02:39:09.682Z,105.50
2019-02-03T02:40:13.061Z,102.60
2019-02-03T02:41:09.708Z,104.80
2019-02-03T02:42:09.566Z,98.10
2019-02-03T02:43:09.563Z,101.00
2019-02-03T02:44:09.500Z,103.70
2019-02-03T02:45:09.522Z,103.80
2019-02-03T02:46:09.437Z,103.10
2019-02-03T02:47:09.432Z,101.00
2019-02-03T02:48:09.373Z,102.10
2019-02-03T02:49:09.352Z,105.30
2019-02-03T02:50:09.308Z,106.40
2019-02-03T02:51:09.355Z,103.80
2019-02-03T02:52:09.244Z,102.90
2019-02-03T02:53:09.263Z,105.50
2019-02-03T02:54:09.183Z,107.90
2019-02-03T02:55:09.173Z,106.70
2019-02-03T02:56:09.123Z,105.20
2019-02-03T02:57:09.197Z,99.70
2019-02-03T02:58:09.055Z,103.60
2019-02-03T02:59:09.090Z,102.90
2019-02-03T03:00:09.003Z,105.90
2019-02-03T03:01:09.003Z,101.60
2019-02-03T03:02:08.933Z,107.70
2019-02-03T03:03:08.922Z,101.50
2019-02-03T03:04:08.863Z,104.60
2019-02-03T03:05:08.923Z,104.40
2019-02-03T03:06:08.796Z,108.20
2019-02-03T03:07:08.844Z,108.60
2019-02-03T03:08:18.330Z,111.00
2019-02-03T03:09:08.703Z,106.40
2019-02-03T03:10:08.753Z,106.30
2019-02-03T03:11:08.635Z,106.40
2019-02-03T03:12:08.665Z,105.60
2019-02-03T03:13:08.572Z,108.30
2019-02-03T03:14:08.574Z,108.70
2019-02-03T03:15:08.518Z,108.70
2019-02-03T03:16:08.592Z,107.40
2019-02-03T03:17:08.451Z,108.10
2019-02-03T03:18:08.492Z,107.80
2019-02-03T03:19:08.382Z,114.50
2019-02-03T03:20:08.403Z,103.90
2019-02-03T03:21:08.335Z,113.30
2019-02-03T03:22:08.288Z,109.60
2019-02-03T03:23:08.252Z,108.30
2019-02-03T03:24:08.332Z,108.50
2019-02-03T03:25:08.181Z,112.60
2019-02-03T03:26:08.242Z,116.00
2019-02-03T03:27:08.122Z,113.00
2019-02-03T03:28:08.095Z,109.80
2019-02-03T03:29:08.153Z,113.50
2019-02-03T03:30:08.023Z,117.50
2019-02-03T03:31:15.338Z,111.30
2019-02-03T03:33:12.028Z,112.90
2019-02-03T03:34:11.963Z,114.70
2019-02-03T03:36:16.913Z,111.30
2019-02-03T03:37:16.793Z,111.10
2019-02-03T03:38:16.873Z,113.00
2019-02-03T03:39:16.734Z,120.50
2019-02-03T03:40:16.784Z,119.90
2019-02-03T03:41:16.675Z,113.60
2019-02-03T03:42:16.693Z,115.40
2019-02-03T03:43:16.605Z,110.20
2019-02-03T03:44:16.575Z,109.00
2019-02-03T03:45:16.533Z,115.00
2019-02-03T03:46:16.625Z,116.70
2019-02-03T03:47:16.474Z,114.00
2019-02-03T03:48:16.529Z,111.00
2019-02-03T03:49:16.412Z,110.10
2019-02-03T03:50:16.386Z,112.90
2019-02-03T03:51:16.442Z,114.60
2019-02-03T03:52:16.313Z,110.30
2019-02-03T03:53:16.364Z,106.20
2019-02-03T03:54:16.244Z,112.20
2019-02-03T03:55:16.239Z,108.20
2019-02-03T03:56:16.185Z,106.10
2019-02-03T03:57:16.173Z,109.90
2019-02-03T03:58:16.126Z,107.60
2019-02-03T03:59:16.183Z,105.20
2019-02-03T04:00:16.057Z,106.50
2019-02-03T04:01:16.025Z,103.40
2019-02-03T04:02:16.005Z,104.90
2019-02-03T04:03:15.954Z,104.30
2019-02-03T04:04:16.527Z,104.80
2019-02-03T04:05:15.899Z,104.00
2019-02-03T04:06:15.924Z,105.70
2019-02-03T04:07:15.831Z,108.00
2019-02-03T04:08:15.832Z,101.40
2019-02-03T04:09:15.775Z,99.90
2019-02-03T04:10:15.742Z,101.50
2019-02-03T04:11:15.702Z,102.40
2019-02-03T04:12:15.666Z,99.50
2019-02-03T04:13:15.643Z,97.40
2019-02-03T04:14:15.693Z,96.30
2019-02-03T04:15:15.579Z,99.40
2019-02-03T04:16:15.578Z,99.20
2019-02-03T04:17:15.515Z,97.30
2019-02-03T04:18:15.482Z,99.60
2019-02-03T04:19:15.495Z,92.20
2019-02-03T04:20:15.482Z,101.20
2019-02-03T04:21:15.403Z,97.80
2019-02-03T04:22:15.356Z,95.80
2019-02-03T04:23:15.314Z,95.40
2019-02-03T04:24:15.294Z,96.10
2019-02-03T04:25:15.321Z,97.10
2019-02-03T04:26:15.217Z,88.90
2019-02-03T04:27:15.231Z,95.20
2019-02-03T04:28:15.154Z,93.70
2019-02-03T04:29:15.129Z,93.70
2019-02-03T04:30:15.152Z,89.80
2019-02-03T04:31:15.067Z,90.90
2019-02-03T04:32:15.062Z,92.90
2019-02-03T04:33:14.990Z,94.90
2019-02-03T04:34:14.967Z,95.00
2019-02-03T04:35:14.933Z,92.90
2019-02-03T04:36:14.996Z,96.40
2019-02-03T04:37:14.864Z,97.60
2019-02-03T04:38:14.893Z,94.60
2019-02-03T04:39:14.802Z,91.80
2019-02-03T04:40:14.783Z,93.20
2019-02-03T04:41:14.745Z,94.60
2019-02-03T04:42:14.820Z,95.90
2019-02-03T04:43:14.673Z,93.70
2019-02-03T04:44:14.722Z,94.20
2019-02-03T04:45:14.616Z,95.20
2019-02-03T04:46:14.645Z,93.40
2019-02-03T04:47:14.545Z,89.70
2019-02-03T04:48:14.545Z,96.80
2019-02-03T04:49:14.493Z,90.60
2019-02-03T04:50:14.578Z,90.00
2019-02-03T04:51:14.413Z,91.60
2019-02-03T04:52:14.487Z,87.10
2019-02-03T04:53:14.351Z,93.40
2019-02-03T04:54:14.382Z,88.40
2019-02-03T04:55:14.397Z,94.10
2019-02-03T04:56:14.394Z,94.50
2019-02-03T04:57:14.222Z,93.40
2019-02-03T04:58:14.308Z,91.90
2019-02-03T04:59:14.164Z,93.30
2019-02-03T05:00:14.213Z,92.20
2019-02-03T05:01:14.104Z,90.80
2019-02-03T05:02:14.060Z,90.90
2019-02-03T05:03:14.042Z,96.40
2019-02-03T05:04:14.031Z,99.40
2019-02-03T05:05:13.974Z,96.10
2019-02-03T05:06:14.055Z,87.80
2019-02-03T05:07:13.900Z,94.90
2019-02-03T05:08:13.871Z,96.90
2019-02-03T05:09:13.861Z,95.70
2019-02-03T05:10:13.823Z,93.20
2019-02-03T05:11:13.869Z,94.60
2019-02-03T05:12:13.750Z,94.60
2019-02-03T05:13:13.714Z,92.70
2019-02-03T05:14:13.680Z,91.50
2019-02-03T05:15:13.701Z,93.30
2019-02-03T05:16:13.622Z,86.80
2019-02-03T05:17:13.602Z,91.00
2019-02-03T05:18:13.551Z,94.10
2019-02-03T05:19:13.521Z,91.90
2019-02-03T05:20:13.531Z,92.50
2019-02-03T05:21:13.453Z,94.20
2019-02-03T05:22:13.531Z,93.70
2019-02-03T05:23:13.389Z,92.60
2019-02-03T05:24:13.361Z,85.00
2019-02-03T05:25:13.329Z,86.30
2019-02-03T05:26:13.350Z,87.90
2019-02-03T05:27:13.260Z,86.10
2019-02-03T05:28:13.260Z,84.40
2019-02-03T05:29:13.203Z,81.90
2019-02-03T05:30:13.171Z,75.10
2019-02-03T05:31:13.181Z,82.70
2019-02-03T05:32:13.113Z,84.90
2019-02-03T05:33:13.091Z,81.80
2019-02-03T05:34:13.041Z,88.10
2019-02-03T05:35:13.110Z,88.80
2019-02-03T05:36:12.985Z,88.10
2019-02-03T05:37:13.010Z,89.30
2019-02-03T05:38:12.910Z,84.20
2019-02-03T05:39:24.613Z,86.00
2019-02-03T05:40:12.850Z,85.10
2019-02-03T05:41:12.819Z,80.30
2019-02-03T05:42:12.788Z,89.70
2019-02-03T05:43:12.882Z,90.60
2019-02-03T05:44:12.726Z,88.10
2019-02-03T05:45:12.750Z,85.60
2019-02-03T05:46:12.651Z,84.60
2019-02-03T05:47:12.622Z,82.70
2019-02-03T05:48:12.674Z,83.90
2019-02-03T05:49:12.572Z,88.50
2019-02-03T05:50:12.581Z,90.60
2019-02-03T05:51:12.489Z,93.60
2019-02-03T05:52:12.463Z,86.60
2019-02-03T05:53:12.431Z,89.70
2019-02-03T05:54:12.502Z,86.90
2019-02-03T05:55:12.374Z,89.10
2019-02-03T05:56:12.412Z,87.00
2019-02-03T05:57:12.322Z,89.60
2019-02-03T05:58:12.270Z,83.00
2019-02-03T05:59:12.330Z,82.70
2019-02-03T06:00:12.212Z,82.20
2019-02-03T06:01:12.241Z,86.10
2019-02-03T06:02:12.141Z,83.40
2019-02-03T06:03:12.218Z,85.70
2019-02-03T06:04:12.083Z,89.60
2019-02-03T06:05:12.062Z,84.40
2019-02-03T06:06:12.010Z,93.20
2019-02-03T06:07:12.074Z,92.20
2019-02-03T06:08:11.955Z,100.80
2019-02-03T06:09:11.922Z,110.50
2019-02-03T06:10:11.882Z,122.20
2019-02-03T06:11:11.894Z,116.00
2019-02-03T06:12:11.820Z,96.40
2019-02-03T06:13:11.813Z,90.20
2019-02-03T06:14:11.762Z,90.20
2019-02-03T06:15:11.820Z,82.60
2019-02-03T06:16:11.701Z,81.50
2019-02-03T06:17:11.732Z,78.30
2019-02-03T06:18:11.632Z,77.70
2019-02-03T06:19:11.642Z,76.10
2019-02-03T06:20:11.655Z,74.80
2019-02-03T06:21:11.584Z,79.80
2019-02-03T06:22:11.561Z,77.60
2019-02-03T06:23:11.470Z,75.20
2019-02-03T06:24:11.461Z,76.20
2019-02-03T06:25:11.413Z,73.30
2019-02-03T06:26:11.372Z,73.50
2019-02-03T06:27:11.392Z,74.90
2019-02-03T06:28:11.311Z,72.70
2019-02-03T06:29:11.291Z,74.30
2019-02-03T06:30:11.262Z,73.00
2019-02-03T06:31:14.181Z,73.60
2019-02-03T06:32:11.184Z,70.30
2019-02-03T06:33:11.211Z,70.20
2019-02-03T06:34:11.125Z,72.90
2019-02-03T06:35:11.120Z,71.00
2019-02-03T06:36:11.065Z,72.00
2019-02-03T06:37:11.022Z,70.00
2019-02-03T06:38:11.046Z,67.50
2019-02-03T06:39:10.959Z,66.20
2019-02-03T06:40:10.952Z,67.60
2019-02-03T06:41:11.032Z,69.20
2019-02-03T06:42:10.861Z,68.20
2019-02-03T06:43:10.842Z,66.10
2019-02-03T06:44:10.879Z,67.90
2019-02-03T06:45:10.763Z,67.00
2019-02-03T06:46:10.792Z,65.30
2019-02-03T06:47:10.700Z,66.50
2019-02-03T06:48:10.671Z,67.40
2019-02-03T06:49:10.702Z,64.50
2019-02-03T06:50:10.605Z,66.20
2019-02-03T06:51:10.610Z,67.40
2019-02-03T06:52:10.551Z,67.40
2019-02-03T06:53:10.512Z,62.00
2019-02-03T06:54:10.480Z,66.90
2019-02-03T06:55:10.533Z,64.40
2019-02-03T06:56:10.413Z,62.50
2019-02-03T06:57:10.454Z,66.10
2019-02-03T06:58:10.439Z,63.80
2019-02-03T06:59:10.325Z,62.10
2019-02-03T07:00:10.292Z,66.50
2019-02-03T07:01:10.361Z,65.00
2019-02-03T07:02:10.220Z,64.90
2019-02-03T07:03:10.275Z,62.70
2019-02-03T07:04:10.161Z,62.60
2019-02-03T07:05:10.190Z,62.10
2019-02-03T07:06:10.091Z,63.20
2019-02-03T07:07:10.092Z,65.80
2019-02-03T07:08:10.020Z,65.40
2019-02-03T07:09:10.121Z,64.10
2019-02-03T07:10:10.019Z,60.80
2019-02-03T07:11:09.931Z,63.40
2019-02-03T07:12:09.922Z,61.40
2019-02-03T07:13:09.871Z,60.20
2019-02-03T07:14:09.932Z,59.90
2019-02-03T07:15:09.800Z,60.00
2019-02-03T07:16:09.841Z,62.70
2019-02-03T07:17:09.745Z,60.70
2019-02-03T07:18:09.751Z,59.50
2019-02-03T07:19:09.692Z,59.40
2019-02-03T07:20:09.661Z,57.80
2019-02-03T07:21:09.672Z,59.20
2019-02-03T07:22:09.581Z,59.70
2019-02-03T07:23:09.582Z,57.60
2019-02-03T07:24:09.522Z,57.20
2019-02-03T07:25:09.490Z,59.70
2019-02-03T07:26:09.465Z,58.70
2019-02-03T07:27:11.883Z,59.80
2019-02-03T07:28:09.412Z,58.00
2019-02-03T07:29:09.362Z,60.50
2019-02-03T07:30:09.430Z,61.00
2019-02-03T07:31:09.293Z,57.60
2019-02-03T07:32:09.259Z,60.60
2019-02-03T07:33:09.219Z,62.90
2019-02-03T07:34:09.243Z,61.10
2019-02-03T07:35:09.160Z,59.40
2019-02-03T07:36:09.162Z,60.90
2019-02-03T07:37:09.101Z,62.60
2019-02-03T07:38:10.714Z,60.10
2019-02-03T07:39:09.082Z,60.30
2019-02-03T07:40:12.491Z,63.90
2019-02-03T07:41:08.980Z,61.90
2019-02-03T07:42:08.941Z,59.00
2019-02-03T07:43:09.016Z,59.30
2019-02-03T07:44:08.892Z,60.00
2019-02-03T07:45:08.902Z,60.60
2019-02-03T07:46:08.811Z,59.90
2019-02-03T07:47:08.812Z,62.30
2019-02-03T07:48:08.742Z,58.90
2019-02-03T07:49:08.722Z,70.90
2019-02-03T07:50:08.730Z,68.00
2019-02-03T07:51:08.641Z,63.20
2019-02-03T07:52:08.653Z,64.00
2019-02-03T07:53:08.776Z,63.60
2019-02-03T07:54:08.964Z,59.30
2019-02-03T07:55:08.521Z,58.20
2019-02-03T07:56:08.563Z,56.80
2019-02-03T07:57:08.453Z,58.60
2019-02-03T07:58:08.472Z,58.60
2019-02-03T07:59:08.385Z,61.60
2019-02-03T08:00:08.352Z,61.50
2019-02-03T08:01:08.333Z,60.90
2019-02-03T08:02:08.401Z,64.10
2019-02-03T08:03:08.251Z,61.90
2019-02-03T08:04:08.301Z,63.10
2019-02-03T08:05:08.190Z,63.10
2019-02-03T08:06:08.173Z,59.70
2019-02-03T08:07:08.220Z,60.10
2019-02-03T08:08:08.101Z,60.20
2019-02-03T08:09:08.143Z,54.60
2019-02-03T08:10:08.046Z,56.70
2019-02-03T08:11:08.002Z,57.90
2019-02-03T08:12:07.971Z,60.00
2019-02-03T08:13:07.951Z,57.40
2019-02-03T08:14:07.901Z,55.00
2019-02-03T08:15:07.982Z,55.10
2019-02-03T08:16:07.831Z,52.50
2019-02-03T08:17:07.812Z,52.20
2019-02-03T08:18:07.880Z,51.30
2019-02-03T08:19:07.741Z,50.10
2019-02-03T08:20:07.789Z,49.50
2019-02-03T08:21:07.684Z,47.40
2019-02-03T08:22:07.650Z,48.60
2019-02-03T08:23:07.614Z,49.90
2019-02-03T08:24:07.614Z,46.90
2019-02-03T08:25:07.552Z,45.50
2019-02-03T08:26:07.621Z,46.80
2019-02-03T08:27:07.482Z,45.20
2019-02-03T08:28:07.450Z,45.50
2019-02-03T08:29:07.425Z,46.50
2019-02-03T08:30:07.440Z,43.60
2019-02-03T08:31:07.359Z,42.50
2019-02-03T08:32:07.359Z,42.80
2019-02-03T08:33:07.301Z,45.50
2019-02-03T08:34:07.369Z,43.40
2019-02-03T08:35:07.230Z,41.40
2019-02-03T08:36:07.270Z,43.50
2019-02-03T08:37:07.172Z,43.30
2019-02-03T08:38:07.192Z,40.10
2019-02-03T08:39:07.100Z,39.50
2019-02-03T08:40:07.069Z,41.70
2019-02-03T08:41:07.101Z,40.30
2019-02-03T08:42:07.004Z,42.10
2019-02-03T08:43:07.011Z,40.70
2019-02-03T08:44:06.952Z,36.80
2019-02-03T08:45:06.924Z,39.10
2019-02-03T08:46:06.882Z,37.30
2019-02-03T08:47:06.933Z,36.80
2019-02-03T08:48:06.811Z,37.80
2019-02-03T08:49:06.847Z,37.00
2019-02-03T08:50:06.851Z,34.70
2019-02-03T08:51:06.733Z,35.90
2019-02-03T08:52:06.760Z,36.80
2019-02-03T08:53:06.650Z,34.40
2019-02-03T08:54:06.676Z,33.80
2019-02-03T08:55:06.590Z,33.80
2019-02-03T08:56:06.562Z,37.10
2019-02-03T08:57:06.591Z,34.50
2019-02-03T08:58:06.500Z,32.20
2019-02-03T08:59:06.505Z,30.80
2019-02-03T09:00:06.441Z,32.20
2019-02-03T09:01:06.401Z,33.00
2019-02-03T09:02:06.386Z,33.30
2019-02-03T09:03:08.522Z,32.20
2019-02-03T09:04:06.312Z,33.30
2019-02-03T09:05:06.333Z,32.50
2019-02-03T09:06:06.255Z,30.10
2019-02-03T09:07:06.212Z,31.50
2019-02-03T09:08:06.263Z,30.80
2019-02-03T09:09:06.142Z,31.40
2019-02-03T09:10:06.162Z,32.70
2019-02-03T09:11:06.119Z,31.00
2019-02-03T09:12:06.051Z,32.60
2019-02-03T09:13:06.021Z,30.10
2019-02-03T09:14:06.081Z,31.20
2019-02-03T09:15:05.961Z,30.60
2019-02-03T09:16:05.991Z,29.50
2019-02-03T09:17:05.892Z,29.30
2019-02-03T09:18:05.865Z,27.40
2019-02-03T09:19:05.946Z,31.10
2019-02-03T09:20:05.803Z,30.90
2019-02-03T09:21:05.862Z,31.10
2019-02-03T09:22:05.730Z,29.50
2019-02-03T09:23:05.765Z,30.90
2019-02-03T09:24:05.672Z,28.50
2019-02-03T09:25:05.772Z,30.80
2019-02-03T09:26:08.504Z,28.50
2019-02-03T09:27:05.692Z,28.40
2019-02-03T09:28:05.582Z,30.60
2019-02-03T09:29:05.521Z,31.40
2019-02-03T09:30:05.498Z,27.20
2019-02-03T09:31:12.845Z,27.90
2019-02-03T09:33:09.515Z,29.90
2019-02-03T09:34:09.424Z,28.80
2019-02-03T09:36:13.946Z,27.40
2019-02-03T09:37:13.835Z,26.90
2019-02-03T09:39:17.852Z,27.00
2019-02-03T09:40:17.813Z,25.40
2019-02-03T09:42:10.705Z,21.60
2019-02-03T09:43:10.599Z,21.70
2019-02-03T09:45:14.652Z,20.80
2019-02-03T09:46:14.624Z,18.40
2019-02-03T09:48:18.723Z,17.90
2019-02-03T09:49:18.663Z,17.30
2019-02-03T09:51:22.696Z,18.80
2019-02-03T09:52:22.672Z,17.20
2019-02-03T09:54:26.750Z,15.50
2019-02-03T09:55:26.664Z,16.00
2019-02-03T09:57:30.732Z,16.10
2019-02-03T09:58:30.721Z,15.40
2019-02-03T10:00:34.710Z,16.00
2019-02-03T10:01:34.698Z,17.20
2019-02-03T10:03:38.800Z,16.70
2019-02-03T10:04:38.715Z,16.20
2019-02-03T10:06:42.802Z,16.50
2019-02-03T10:07:42.724Z,14.10
2019-02-03T10:09:46.835Z,16.40
2019-02-03T10:10:46.742Z,13.30
2019-02-03T10:12:50.821Z,13.30
2019-02-03T10:13:50.803Z,13.80
2019-02-03T10:15:54.831Z,10.90
2019-02-03T10:16:54.772Z,12.50
2019-02-03T10:18:58.801Z,12.40
2019-02-03T10:19:58.783Z,10.80
2019-02-03T10:21:52.310Z,11.20
2019-02-03T10:22:52.246Z,10.00
2019-02-03T10:24:56.293Z,10.80
2019-02-03T10:25:56.276Z,10.90
2019-02-03T10:28:00.344Z,11.40
2019-02-03T10:29:00.260Z,11.10
2019-02-03T10:31:04.352Z,11.30
2019-02-03T10:32:04.283Z,11.00
2019-02-03T10:34:08.370Z,10.50
2019-02-03T10:35:08.296Z,10.90
2019-02-03T10:37:12.371Z,11.00
2019-02-03T10:38:12.300Z,10.90
2019-02-03T10:40:16.381Z,10.20
2019-02-03T10:41:23.688Z,9.40
2019-02-03T10:43:20.399Z,9.40
2019-02-03T10:44:20.365Z,11.20
2019-02-03T10:46:24.411Z,11.90
2019-02-03T10:47:24.342Z,10.60
2019-02-03T10:49:28.424Z,10.90
2019-02-03T10:50:28.352Z,10.30
2019-02-03T10:52:32.406Z,10.30
2019-02-03T10:53:32.401Z,10.90
2019-02-03T10:55:36.454Z,10.40
2019-02-03T10:56:36.378Z,10.70
2019-02-03T10:58:40.474Z,8.50
2019-02-03T10:59:40.520Z,9.90
2019-02-03T11:01:34.245Z,8.70
2019-02-03T11:02:34.172Z,9.20
2019-02-03T11:04:38.260Z,11.60
2019-02-03T11:05:38.181Z,9.50
2019-02-03T11:07:42.260Z,9.70
2019-02-03T11:08:42.182Z,9.40
2019-02-03T11:10:47.289Z,9.30
2019-02-03T11:11:47.222Z,9.60
2019-02-03T11:13:52.331Z,8.00
2019-02-03T11:14:52.294Z,9.10
2019-02-03T11:16:57.171Z,9.80
2019-02-03T11:17:57.101Z,8.70
2019-02-03T11:20:01.950Z,10.40
2019-02-03T11:21:01.948Z,8.80
2019-02-03T11:23:06.018Z,8.30
2019-02-03T11:24:05.941Z,8.60
2019-02-03T11:26:09.994Z,9.50
2019-02-03T11:27:09.951Z,8.70
2019-02-03T11:29:14.041Z,7.00
2019-02-03T11:30:13.970Z,8.50
2019-02-03T11:32:06.936Z,9.40
2019-02-03T11:33:07.412Z,8.30
2019-02-03T11:35:10.992Z,8.60
2019-02-03T11:36:10.960Z,7.30
2019-02-03T11:38:14.998Z,8.80
2019-02-03T11:39:14.947Z,7.80
2019-02-03T11:41:20.060Z,7.40
2019-02-03T11:42:19.986Z,8.00
2019-02-03T11:44:24.062Z,7.60
2019-02-03T11:45:23.995Z,7.20
2019-02-03T11:47:28.034Z,6.80
2019-02-03T11:48:28.032Z,7.30
2019-02-03T11:50:32.093Z,8.60
2019-02-03T11:51:32.010Z,7.10
2019-02-03T11:53:36.093Z,6.60
2019-02-03T11:54:36.020Z,8.60
2019-02-03T11:56:40.110Z,7.50
2019-02-03T11:57:40.042Z,7.50
2019-02-03T11:59:44.221Z,8.50
2019-02-03T12:00:44.052Z,7.70
2019-02-03T12:02:48.142Z,7.80
2019-02-03T12:03:48.072Z,7.10
2019-02-03T12:05:52.659Z,7.20
2019-02-03T12:06:52.592Z,6.60
2019-02-03T12:08:56.624Z,7.90
2019-02-03T12:09:56.601Z,6.70
2019-02-03T12:12:00.501Z,8.00
2019-02-03T12:12:49.695Z,6.00
2019-02-03T12:14:54.278Z,5.80
2019-02-03T12:15:54.092Z,7.80
2019-02-03T12:17:59.194Z,6.20
2019-02-03T12:18:59.109Z,7.70
2019-02-03T12:21:03.166Z,6.50
2019-02-03T12:22:03.162Z,7.00
2019-02-03T12:24:08.260Z,5.50
2019-02-03T12:25:08.178Z,7.90
2019-02-03T12:27:12.206Z,7.10
2019-02-03T12:28:12.176Z,6.00
2019-02-03T12:30:16.273Z,8.00
2019-02-03T12:31:16.196Z,6.30
2019-02-03T12:33:20.271Z,6.90
2019-02-03T12:34:20.203Z,5.00
2019-02-03T12:36:24.231Z,5.30
2019-02-03T12:37:24.258Z,5.20
2019-02-03T12:39:28.291Z,5.30
2019-02-03T12:40:28.331Z,6.80
2019-02-03T12:42:32.260Z,4.90
2019-02-03T12:43:32.272Z,6.00
2019-02-03T12:45:36.324Z,6.60
2019-02-03T12:46:38.830Z,5.70
2019-02-03T12:48:40.335Z,7.70
2019-02-03T12:49:40.246Z,6.10
2019-02-03T12:51:33.323Z,6.40
2019-02-03T12:52:33.214Z,5.40
2019-02-03T12:54:38.279Z,5.40
2019-02-03T12:55:38.294Z,5.00
2019-02-03T12:57:42.850Z,6.80
2019-02-03T12:58:42.770Z,6.20
2019-02-03T13:00:49.494Z,5.60
2019-02-03T13:01:46.804Z,5.80
2019-02-03T13:03:50.884Z,6.60
2019-02-03T13:04:50.798Z,6.00
2019-02-03T13:06:54.880Z,7.10
2019-02-03T13:07:54.810Z,4.80
2019-02-03T13:09:58.842Z,5.50
2019-02-03T13:10:58.822Z,4.80
2019-02-03T13:13:02.910Z,5.50
2019-02-03T13:14:02.842Z,7.40
2019-02-03T13:16:06.920Z,4.70
2019-02-03T13:17:06.851Z,4.40
2019-02-03T13:19:10.932Z,5.00
2019-02-03T13:20:10.856Z,4.70
2019-02-03T13:22:03.901Z,4.30
2019-02-03T13:23:03.810Z,6.00
2019-02-03T13:25:07.895Z,4.50
2019-02-03T13:26:07.820Z,4.80
2019-02-03T13:28:12.936Z,4.90
2019-02-03T13:29:12.855Z,5.00
2019-02-03T13:31:16.952Z,3.70
2019-02-03T13:32:16.912Z,5.00
2019-02-03T13:34:20.965Z,4.30
2019-02-03T13:35:20.882Z,4.60
2019-02-03T13:37:24.934Z,4.90
2019-02-03T13:38:24.892Z,4.70
2019-02-03T13:40:28.982Z,6.80
2019-02-03T13:41:28.903Z,6.40
2019-02-03T13:43:32.992Z,5.30
2019-02-03T13:44:32.933Z,4.50
2019-02-03T13:46:37.014Z,5.60
2019-02-03T13:47:36.926Z,3.70
2019-02-03T13:49:42.051Z,5.80
2019-02-03T13:50:41.964Z,4.10
2019-02-03T13:52:46.061Z,5.70
2019-02-03T13:53:46.032Z,6.50
2019-02-03T13:55:50.073Z,5.80
2019-02-03T13:56:49.994Z,4.40
2019-02-03T13:58:54.084Z,4.60
2019-02-03T13:59:53.991Z,3.80
2019-02-03T14:01:50.518Z,5.60
2019-02-03T14:02:47.873Z,3.90
2019-02-03T14:04:51.922Z,5.10
2019-02-03T14:05:51.900Z,4.20
2019-02-03T14:07:55.992Z,4.50
2019-02-03T14:08:55.892Z,5.60
2019-02-03T14:10:59.941Z,4.00
2019-02-03T14:11:59.972Z,4.00
2019-02-03T14:14:04.014Z,6.00
2019-02-03T14:15:03.914Z,4.30
2019-02-03T14:17:08.022Z,4.30
2019-02-03T14:18:07.935Z,3.90
2019-02-03T14:20:12.954Z,5.00
2019-02-03T14:21:12.861Z,5.20
2019-02-03T14:23:16.963Z,4.30
2019-02-03T14:24:16.872Z,3.80
2019-02-03T14:26:21.852Z,5.10
2019-02-03T14:27:21.872Z,5.40
2019-02-03T14:29:25.914Z,5.10
2019-02-03T14:30:25.832Z,5.20
2019-02-03T14:32:18.771Z,5.00
2019-02-03T14:33:18.683Z,4.40
2019-02-03T14:35:22.782Z,4.00
2019-02-03T14:36:22.691Z,5.40
2019-02-03T14:38:26.736Z,4.40
2019-02-03T14:39:26.761Z,3.80
2019-02-03T14:41:30.814Z,5.10